SEPTEMBER 30, 2014


METAR SMJP 302300Z 00000KT 9999 FEW012 SCT040 26/24 Q1014 NOSIG=

METAR SMZO 302300Z 00000KT 9999 FEW025CB 28/24 Q1013 NOSIG=

METAR SMNI 302000Z 06012KT 9999 FEW015 FEW020CB 28/25 Q1012=